createdAt,value
2022-08-24T00:00:12.442Z,15.36
2022-08-24T00:00:32.527Z,15.34
2022-08-24T00:00:52.587Z,15.34
2022-08-24T00:01:12.669Z,15.36
2022-08-24T00:01:32.719Z,15.36
2022-08-24T00:01:52.939Z,15.36
2022-08-24T00:02:13.014Z,15.36
2022-08-24T00:02:33.092Z,15.37
2022-08-24T00:02:53.196Z,15.34
2022-08-24T00:03:13.182Z,15.34
2022-08-24T00:03:34.775Z,15.34
2022-08-24T00:03:55.532Z,15.33
2022-08-24T00:04:13.760Z,15.31
2022-08-24T00:04:33.263Z,15.33
2022-08-24T00:04:53.339Z,15.3
2022-08-24T00:05:14.885Z,15.3
2022-08-24T00:05:33.496Z,15.29
2022-08-24T00:05:53.564Z,15.26
2022-08-24T00:06:13.638Z,15.26
2022-08-24T00:06:33.696Z,15.27
2022-08-24T00:06:53.780Z,15.23
2022-08-24T00:07:26.481Z,15.27
2022-08-24T00:07:33.935Z,15.29
2022-08-24T00:07:53.989Z,15.3
2022-08-24T00:08:14.067Z,15.29
2022-08-24T00:08:34.146Z,15.29
2022-08-24T00:08:54.257Z,15.3
2022-08-24T00:09:14.333Z,15.3
2022-08-24T00:09:34.397Z,15.3
2022-08-24T00:09:54.498Z,15.33
2022-08-24T00:10:14.534Z,15.33
2022-08-24T00:10:34.579Z,15.33
2022-08-24T00:10:54.659Z,15.33
2022-08-24T00:11:14.686Z,15.33
2022-08-24T00:11:34.788Z,15.31
2022-08-24T00:11:54.838Z,15.33
2022-08-24T00:12:14.880Z,15.33
2022-08-24T00:12:34.936Z,15.36
2022-08-24T00:12:54.988Z,15.34
2022-08-24T00:13:15.013Z,15.37
2022-08-24T00:13:39.248Z,15.36
2022-08-24T00:13:55.094Z,15.38
2022-08-24T00:14:15.173Z,15.38
2022-08-24T00:14:35.207Z,15.38
2022-08-24T00:14:55.246Z,15.4
2022-08-24T00:15:15.308Z,15.38
2022-08-24T00:15:35.363Z,15.38
2022-08-24T00:15:55.411Z,15.37
2022-08-24T00:16:15.589Z,15.37
2022-08-24T00:16:35.615Z,15.38
2022-08-24T00:16:55.683Z,15.38
2022-08-24T00:17:15.645Z,15.37
2022-08-24T00:17:35.733Z,15.37
2022-08-24T00:17:55.806Z,15.36
2022-08-24T00:18:15.840Z,15.36
2022-08-24T00:18:35.866Z,15.36
2022-08-24T00:18:55.906Z,15.36
2022-08-24T00:19:15.966Z,15.34
2022-08-24T00:19:36.018Z,15.36
2022-08-24T00:19:56.093Z,15.37
2022-08-24T00:20:16.152Z,15.34
2022-08-24T00:20:36.223Z,15.36
2022-08-24T00:20:56.293Z,15.4
2022-08-24T00:21:16.338Z,15.37
2022-08-24T00:21:36.403Z,15.34
2022-08-24T00:21:56.459Z,15.36
2022-08-24T00:22:16.543Z,15.36
2022-08-24T00:22:36.598Z,15.36
2022-08-24T00:22:56.653Z,15.4
2022-08-24T00:23:16.702Z,15.38
2022-08-24T00:23:36.764Z,15.4
2022-08-24T00:23:56.823Z,15.38
2022-08-24T00:24:16.897Z,15.38
2022-08-24T00:24:36.947Z,15.36
2022-08-24T00:24:57.047Z,15.33
2022-08-24T00:25:17.097Z,15.36
2022-08-24T00:25:37.136Z,15.33
2022-08-24T00:25:57.212Z,15.33
2022-08-24T00:26:17.259Z,15.33
2022-08-24T00:26:37.352Z,15.31
2022-08-24T00:26:57.402Z,15.31
2022-08-24T00:27:17.429Z,15.31
2022-08-24T00:27:37.473Z,15.29
2022-08-24T00:27:57.563Z,15.26
2022-08-24T00:28:17.591Z,15.29
2022-08-24T00:28:37.624Z,15.29
2022-08-24T00:28:57.703Z,15.26
2022-08-24T00:29:17.770Z,15.27
2022-08-24T00:29:37.861Z,15.26
2022-08-24T00:29:57.885Z,15.26
2022-08-24T00:30:17.933Z,15.25
2022-08-24T00:30:38.007Z,15.22
2022-08-24T00:30:58.079Z,15.25
2022-08-24T00:31:18.168Z,15.26
2022-08-24T00:31:38.243Z,15.22
2022-08-24T00:31:58.391Z,15.23
2022-08-24T00:32:18.287Z,15.23
2022-08-24T00:32:38.337Z,15.23
2022-08-24T00:32:58.416Z,15.22
2022-08-24T00:33:18.470Z,15.22
2022-08-24T00:33:38.531Z,15.22
2022-08-24T00:33:58.574Z,15.23
2022-08-24T00:34:18.624Z,15.22
2022-08-24T00:34:38.674Z,15.2
2022-08-24T00:34:59.500Z,15.2
2022-08-24T00:35:18.737Z,15.17
2022-08-24T00:35:38.818Z,15.2
2022-08-24T00:35:58.881Z,15.17
2022-08-24T00:36:18.961Z,15.17
2022-08-24T00:36:39.015Z,15.16
2022-08-24T00:36:59.086Z,15.19
2022-08-24T00:37:19.133Z,15.16
2022-08-24T00:37:39.200Z,15.16
2022-08-24T00:37:59.315Z,15.2
2022-08-24T00:38:19.311Z,15.17
2022-08-24T00:38:39.365Z,15.17
2022-08-24T00:38:59.459Z,15.14
2022-08-24T00:39:19.508Z,15.11
2022-08-24T00:39:39.589Z,15.13
2022-08-24T00:39:59.812Z,15.11
2022-08-24T00:40:19.730Z,15.16
2022-08-24T00:40:39.768Z,15.16
2022-08-24T00:40:59.814Z,15.14
2022-08-24T00:41:19.875Z,15.14
2022-08-24T00:41:39.941Z,15.13
2022-08-24T00:42:00.036Z,15.1
2022-08-24T00:42:20.084Z,15.09
2022-08-24T00:42:40.149Z,15.07
2022-08-24T00:43:00.218Z,15.09
2022-08-24T00:43:20.273Z,15.07
2022-08-24T00:43:40.298Z,15.09
2022-08-24T00:44:00.386Z,15.1
2022-08-24T00:44:20.471Z,15.07
2022-08-24T00:44:40.507Z,15.05
2022-08-24T00:45:00.576Z,15.06
2022-08-24T00:45:20.702Z,15.05
2022-08-24T00:45:40.729Z,15.06
2022-08-24T00:46:00.812Z,15.06
2022-08-24T00:46:20.800Z,15.03
2022-08-24T00:46:40.845Z,15.07
2022-08-24T00:47:00.903Z,15.05
2022-08-24T00:47:20.961Z,15.07
2022-08-24T00:47:40.999Z,15.06
2022-08-24T00:48:01.103Z,15.05
2022-08-24T00:48:21.120Z,15.05
2022-08-24T00:48:41.198Z,15.05
2022-08-24T00:49:01.275Z,15.06
2022-08-24T00:49:21.325Z,15.06
2022-08-24T00:49:41.357Z,15.06
2022-08-24T00:50:01.441Z,15.05
2022-08-24T00:50:21.543Z,15.02
2022-08-24T00:50:41.635Z,15.03
2022-08-24T00:51:01.675Z,15.05
2022-08-24T00:51:21.753Z,15.05
2022-08-24T00:51:41.832Z,15.09
2022-08-24T00:52:03.615Z,15.07
2022-08-24T00:52:21.924Z,15.07
2022-08-24T00:52:41.992Z,15.07
2022-08-24T00:53:02.061Z,15.09
2022-08-24T00:53:22.101Z,15.05
2022-08-24T00:53:42.170Z,15.03
2022-08-24T00:54:02.235Z,15.05
2022-08-24T00:54:22.322Z,15.03
2022-08-24T00:54:46.139Z,15.02
2022-08-24T00:55:02.474Z,15.03
2022-08-24T00:55:22.540Z,15.02
2022-08-24T00:55:42.602Z,15
2022-08-24T00:56:02.651Z,15.02
2022-08-24T00:56:22.717Z,15
2022-08-24T00:56:42.771Z,15
2022-08-24T00:57:02.854Z,15.02
2022-08-24T00:57:22.913Z,14.99
2022-08-24T00:57:43.011Z,15
2022-08-24T00:58:03.275Z,15
2022-08-24T00:58:23.154Z,15.03
2022-08-24T00:58:43.209Z,15.02
2022-08-24T00:59:03.263Z,15.02
2022-08-24T00:59:23.323Z,15.05
2022-08-24T00:59:43.382Z,15.05
2022-08-24T01:00:03.433Z,15.05
2022-08-24T01:00:23.524Z,15.05
2022-08-24T01:00:46.349Z,15.03
2022-08-24T01:01:03.705Z,15.03
2022-08-24T01:01:23.689Z,15.06
2022-08-24T01:01:43.855Z,15.03
2022-08-24T01:02:14.961Z,15.05
2022-08-24T01:02:23.913Z,15.03
2022-08-24T01:02:44.000Z,15.03
2022-08-24T01:03:03.967Z,15.05
2022-08-24T01:03:24.019Z,15.05
2022-08-24T01:03:44.071Z,15.03
2022-08-24T01:04:04.148Z,15.03
2022-08-24T01:04:24.356Z,15.03
2022-08-24T01:04:44.218Z,15.05
2022-08-24T01:05:04.291Z,15.02
2022-08-24T01:05:24.347Z,15.03
2022-08-24T01:05:44.398Z,15.05
2022-08-24T01:06:04.470Z,15.03
2022-08-24T01:06:24.531Z,15.02
2022-08-24T01:06:44.577Z,15.03
2022-08-24T01:07:04.609Z,15.03
2022-08-24T01:07:24.684Z,15.02
2022-08-24T01:07:44.745Z,15.02
2022-08-24T01:08:04.990Z,15.02
2022-08-24T01:08:24.886Z,15.03
2022-08-24T01:08:44.964Z,15
2022-08-24T01:09:05.039Z,15
2022-08-24T01:09:25.093Z,14.99
2022-08-24T01:09:45.151Z,14.99
2022-08-24T01:10:05.192Z,14.98
2022-08-24T01:10:25.272Z,14.96
2022-08-24T01:10:45.285Z,14.96
2022-08-24T01:11:05.354Z,14.96
2022-08-24T01:11:25.408Z,14.96
2022-08-24T01:11:45.496Z,14.95
2022-08-24T01:12:05.553Z,14.95
2022-08-24T01:12:25.597Z,14.98
2022-08-24T01:12:59.806Z,14.93
2022-08-24T01:13:05.746Z,14.9
2022-08-24T01:13:25.797Z,14.9
2022-08-24T01:13:45.855Z,14.93
2022-08-24T01:14:05.921Z,14.9
2022-08-24T01:14:25.966Z,14.89
2022-08-24T01:14:46.034Z,14.92
2022-08-24T01:15:06.086Z,14.89
2022-08-24T01:15:26.171Z,14.9
2022-08-24T01:15:46.226Z,14.89
2022-08-24T01:16:06.375Z,14.92
2022-08-24T01:16:26.445Z,14.93
2022-08-24T01:16:46.452Z,14.93
2022-08-24T01:17:06.530Z,14.95
2022-08-24T01:17:26.618Z,14.95
2022-08-24T01:17:46.640Z,14.95
2022-08-24T01:18:06.678Z,14.93
2022-08-24T01:18:26.743Z,14.93
2022-08-24T01:18:46.823Z,14.92
2022-08-24T01:19:06.884Z,14.9
2022-08-24T01:19:26.911Z,14.9
2022-08-24T01:19:46.958Z,14.9
2022-08-24T01:20:07.034Z,14.9
2022-08-24T01:20:27.095Z,14.89
2022-08-24T01:20:47.159Z,14.89
2022-08-24T01:21:07.250Z,14.86
2022-08-24T01:21:27.307Z,14.88
2022-08-24T01:21:47.363Z,14.88
2022-08-24T01:22:07.434Z,14.86
2022-08-24T01:22:27.489Z,14.88
2022-08-24T01:22:47.545Z,14.89
2022-08-24T01:23:07.596Z,14.89
2022-08-24T01:23:27.638Z,14.88
2022-08-24T01:23:47.710Z,14.89
2022-08-24T01:24:07.775Z,14.88
2022-08-24T01:24:27.811Z,14.88
2022-08-24T01:24:47.928Z,14.83
2022-08-24T01:25:07.963Z,14.88
2022-08-24T01:25:28.020Z,14.86
2022-08-24T01:25:48.074Z,14.86
2022-08-24T01:26:08.142Z,14.83
2022-08-24T01:26:28.194Z,14.83
2022-08-24T01:26:48.274Z,14.83
2022-08-24T01:27:08.322Z,14.85
2022-08-24T01:27:28.379Z,14.83
2022-08-24T01:27:48.438Z,14.88
2022-08-24T01:28:08.495Z,14.82
2022-08-24T01:28:28.553Z,14.85
2022-08-24T01:28:48.620Z,14.85
2022-08-24T01:29:08.677Z,14.86
2022-08-24T01:29:28.731Z,14.85
2022-08-24T01:29:48.800Z,14.85
2022-08-24T01:30:08.871Z,14.85
2022-08-24T01:30:30.732Z,14.83
2022-08-24T01:30:48.971Z,14.83
2022-08-24T01:31:09.060Z,14.8
2022-08-24T01:31:29.130Z,14.82
2022-08-24T01:31:49.175Z,14.79
2022-08-24T01:32:09.212Z,14.79
2022-08-24T01:32:29.285Z,14.8
2022-08-24T01:32:49.355Z,14.8
2022-08-24T01:33:09.420Z,14.79
2022-08-24T01:33:29.478Z,14.8
2022-08-24T01:33:49.534Z,14.79
2022-08-24T01:34:09.583Z,14.78
2022-08-24T01:34:29.663Z,14.76
2022-08-24T01:34:49.720Z,14.78
2022-08-24T01:35:09.784Z,14.76
2022-08-24T01:35:29.848Z,14.8
2022-08-24T01:35:49.905Z,14.79
2022-08-24T01:36:09.954Z,14.83
2022-08-24T01:36:29.989Z,14.8
2022-08-24T01:36:50.041Z,14.79
2022-08-24T01:37:10.100Z,14.85
2022-08-24T01:37:30.164Z,14.83
2022-08-24T01:37:50.252Z,14.8
2022-08-24T01:38:10.319Z,14.8
2022-08-24T01:38:30.401Z,14.79
2022-08-24T01:38:50.426Z,14.78
2022-08-24T01:39:10.479Z,14.78
2022-08-24T01:39:30.519Z,14.79
2022-08-24T01:39:50.635Z,14.79
2022-08-24T01:40:10.653Z,14.79
2022-08-24T01:40:30.645Z,14.79
2022-08-24T01:40:50.708Z,14.79
2022-08-24T01:41:12.276Z,14.79
2022-08-24T01:41:30.825Z,14.76
2022-08-24T01:41:50.888Z,14.78
2022-08-24T01:42:10.956Z,14.78
2022-08-24T01:42:31.029Z,14.76
2022-08-24T01:42:51.117Z,14.75
2022-08-24T01:43:11.204Z,14.76
2022-08-24T01:43:31.275Z,14.75
2022-08-24T01:43:51.337Z,14.72
2022-08-24T01:44:11.392Z,14.74
2022-08-24T01:44:31.470Z,14.74
2022-08-24T01:44:51.507Z,14.69
2022-08-24T01:45:11.520Z,14.71
2022-08-24T01:45:31.602Z,14.69
2022-08-24T01:45:51.669Z,14.68
2022-08-24T01:46:11.766Z,14.67
2022-08-24T01:46:31.859Z,14.69
2022-08-24T01:46:51.911Z,14.71
2022-08-24T01:47:11.913Z,14.68
2022-08-24T01:47:31.959Z,14.69
2022-08-24T01:47:51.990Z,14.68
2022-08-24T01:48:12.063Z,14.68
2022-08-24T01:48:32.109Z,14.68
2022-08-24T01:48:52.180Z,14.68
2022-08-24T01:49:12.228Z,14.65
2022-08-24T01:49:32.325Z,14.65
2022-08-24T01:49:52.427Z,14.62
2022-08-24T01:50:12.465Z,14.65
2022-08-24T01:50:32.521Z,14.67
2022-08-24T01:50:52.585Z,14.65
2022-08-24T01:51:12.626Z,14.64
2022-08-24T01:51:32.710Z,14.64
2022-08-24T01:51:52.762Z,14.64
2022-08-24T01:52:12.805Z,14.61
2022-08-24T01:53:01.498Z,14.64
2022-08-24T01:53:04.832Z,14.64
2022-08-24T01:53:12.991Z,14.65
2022-08-24T01:53:33.016Z,14.62
2022-08-24T01:53:53.104Z,14.61
2022-08-24T01:54:13.155Z,14.62
2022-08-24T01:54:33.207Z,14.62
2022-08-24T01:54:53.275Z,14.61
2022-08-24T01:55:13.324Z,14.61
2022-08-24T01:55:33.409Z,14.61
2022-08-24T01:55:53.495Z,14.58
2022-08-24T01:56:13.571Z,14.58
2022-08-24T01:56:33.629Z,14.58
2022-08-24T01:56:53.680Z,14.57
2022-08-24T01:57:15.041Z,14.53
2022-08-24T01:57:33.833Z,14.52
2022-08-24T01:57:53.890Z,14.52
2022-08-24T01:58:13.947Z,14.49
2022-08-24T01:58:33.999Z,14.49
2022-08-24T01:58:54.036Z,14.51
2022-08-24T01:59:14.078Z,14.49
2022-08-24T01:59:34.132Z,14.48
2022-08-24T01:59:54.237Z,14.47
2022-08-24T02:00:14.297Z,14.47
2022-08-24T02:00:34.325Z,14.47
2022-08-24T02:00:54.381Z,14.44
2022-08-24T02:01:14.425Z,14.47
2022-08-24T02:01:34.589Z,14.45
2022-08-24T02:01:54.630Z,14.45
2022-08-24T02:02:14.693Z,14.48
2022-08-24T02:02:34.783Z,14.45
2022-08-24T02:02:54.827Z,14.45
2022-08-24T02:03:14.933Z,14.45
2022-08-24T02:03:34.912Z,14.44
2022-08-24T02:03:54.989Z,14.42
2022-08-24T02:04:18.840Z,14.45
2022-08-24T02:04:35.104Z,14.47
2022-08-24T02:04:55.143Z,14.44
2022-08-24T02:05:15.217Z,14.49
2022-08-24T02:05:35.257Z,14.47
2022-08-24T02:05:55.330Z,14.47
2022-08-24T02:06:15.340Z,14.47
2022-08-24T02:06:35.387Z,14.44
2022-08-24T02:06:55.468Z,14.44
2022-08-24T02:07:15.559Z,14.44
2022-08-24T02:07:35.612Z,14.44
2022-08-24T02:07:55.695Z,14.42
2022-08-24T02:08:15.757Z,14.4
2022-08-24T02:08:35.808Z,14.41
2022-08-24T02:08:55.872Z,14.38
2022-08-24T02:09:15.942Z,14.4
2022-08-24T02:09:36.010Z,14.38
2022-08-24T02:09:56.065Z,14.37
2022-08-24T02:10:16.137Z,14.34
2022-08-24T02:10:36.197Z,14.32
2022-08-24T02:10:56.739Z,14.34
2022-08-24T02:11:16.276Z,14.34
2022-08-24T02:11:36.332Z,14.32
2022-08-24T02:11:56.389Z,14.34
2022-08-24T02:12:16.502Z,14.31
2022-08-24T02:12:36.549Z,14.32
2022-08-24T02:12:56.685Z,14.28
2022-08-24T02:13:16.645Z,14.27
2022-08-24T02:13:36.730Z,14.28
2022-08-24T02:13:56.797Z,14.25
2022-08-24T02:14:16.844Z,14.28
2022-08-24T02:14:36.895Z,14.28
2022-08-24T02:14:56.960Z,14.28
2022-08-24T02:15:17.003Z,14.28
2022-08-24T02:15:37.160Z,14.3
2022-08-24T02:15:57.210Z,14.27
2022-08-24T02:16:17.320Z,14.27
2022-08-24T02:16:37.301Z,14.25
2022-08-24T02:16:57.337Z,14.24
2022-08-24T02:17:17.394Z,14.24
2022-08-24T02:17:37.439Z,14.19
2022-08-24T02:17:57.520Z,14.23
2022-08-24T02:18:17.588Z,14.23
2022-08-24T02:18:37.637Z,14.21
2022-08-24T02:18:57.705Z,14.2
2022-08-24T02:19:17.752Z,14.21
2022-08-24T02:19:37.811Z,14.21
2022-08-24T02:19:57.873Z,14.21
2022-08-24T02:20:17.933Z,14.2
2022-08-24T02:20:37.996Z,14.21
2022-08-24T02:20:58.058Z,14.2
2022-08-24T02:21:18.099Z,14.2
2022-08-24T02:21:38.177Z,14.24
2022-08-24T02:21:58.220Z,14.2
2022-08-24T02:22:18.293Z,14.21
2022-08-24T02:22:38.347Z,14.23
2022-08-24T02:22:58.412Z,14.2
2022-08-24T02:23:18.462Z,14.19
2022-08-24T02:23:38.523Z,14.17
2022-08-24T02:23:58.607Z,14.17
2022-08-24T02:24:18.646Z,14.19
2022-08-24T02:24:38.698Z,14.19
2022-08-24T02:24:58.790Z,14.2
2022-08-24T02:25:18.862Z,14.2
2022-08-24T02:25:38.910Z,14.19
2022-08-24T02:25:58.982Z,14.17
2022-08-24T02:26:19.036Z,14.16
2022-08-24T02:26:39.104Z,14.17
2022-08-24T02:26:59.154Z,14.16
2022-08-24T02:27:19.234Z,14.16
2022-08-24T02:27:39.286Z,14.11
2022-08-24T02:27:59.351Z,14.16
2022-08-24T02:28:19.405Z,14.13
2022-08-24T02:28:39.462Z,14.13
2022-08-24T02:29:03.747Z,14.13
2022-08-24T02:29:19.588Z,14.11
2022-08-24T02:29:39.643Z,14.09
2022-08-24T02:29:59.686Z,14.09
2022-08-24T02:30:19.773Z,14.09
2022-08-24T02:30:39.827Z,14.09
2022-08-24T02:30:59.914Z,14.09
2022-08-24T02:31:20.007Z,14.13
2022-08-24T02:31:39.955Z,14.13
2022-08-24T02:32:00.027Z,14.11
2022-08-24T02:32:20.130Z,14.14
2022-08-24T02:32:40.166Z,14.11
2022-08-24T02:33:00.354Z,14.11
2022-08-24T02:33:20.306Z,14.11
2022-08-24T02:33:40.381Z,14.13
2022-08-24T02:34:00.435Z,14.11
2022-08-24T02:34:20.524Z,14.13
2022-08-24T02:34:40.574Z,14.11
2022-08-24T02:35:00.684Z,14.07
2022-08-24T02:35:20.687Z,14.07
2022-08-24T02:35:40.732Z,14.06
2022-08-24T02:36:00.778Z,14.04
2022-08-24T02:36:25.397Z,14.06
2022-08-24T02:36:40.894Z,14.03
2022-08-24T02:37:00.927Z,14.03
2022-08-24T02:37:20.992Z,14
2022-08-24T02:37:43.403Z,14.03
2022-08-24T02:38:01.089Z,14.02
2022-08-24T02:38:21.170Z,14.02
2022-08-24T02:38:41.203Z,14.02
2022-08-24T02:39:01.246Z,14.02
2022-08-24T02:39:21.302Z,14.02
2022-08-24T02:39:41.391Z,14
2022-08-24T02:40:01.563Z,13.99
2022-08-24T02:40:21.594Z,13.99
2022-08-24T02:40:41.602Z,13.96
2022-08-24T02:41:01.703Z,13.94
2022-08-24T02:41:21.729Z,13.96
2022-08-24T02:41:41.800Z,13.94
2022-08-24T02:42:01.864Z,13.96
2022-08-24T02:42:21.893Z,13.94
2022-08-24T02:42:41.957Z,13.97
2022-08-24T02:43:02.087Z,13.97
2022-08-24T02:43:22.072Z,13.97
2022-08-24T02:43:42.096Z,13.94
2022-08-24T02:44:02.142Z,13.96
2022-08-24T02:44:22.209Z,13.96
2022-08-24T02:44:42.257Z,13.93
2022-08-24T02:45:02.349Z,13.94
2022-08-24T02:45:22.391Z,13.96
2022-08-24T02:45:42.453Z,13.94
2022-08-24T02:46:02.594Z,13.93
2022-08-24T02:46:22.639Z,13.92
2022-08-24T02:46:42.704Z,13.92
2022-08-24T02:47:02.672Z,13.9
2022-08-24T02:47:22.751Z,13.94
2022-08-24T02:47:42.784Z,13.9
2022-08-24T02:48:02.870Z,13.93
2022-08-24T02:48:22.965Z,13.9
2022-08-24T02:48:43.010Z,13.86
2022-08-24T02:49:11.196Z,13.87
2022-08-24T02:49:23.143Z,13.87
2022-08-24T02:49:43.182Z,13.87
2022-08-24T02:50:03.243Z,13.87
2022-08-24T02:50:23.309Z,13.86
2022-08-24T02:50:43.385Z,13.84
2022-08-24T02:51:03.440Z,13.86
2022-08-24T02:51:23.504Z,13.86
2022-08-24T02:51:44.878Z,13.83
2022-08-24T02:52:03.683Z,13.8
2022-08-24T02:52:23.725Z,13.82
2022-08-24T02:52:43.772Z,13.8
2022-08-24T02:53:04.007Z,13.75
2022-08-24T02:53:23.912Z,13.77
2022-08-24T02:53:43.961Z,13.77
2022-08-24T02:54:04.031Z,13.76
2022-08-24T02:54:24.054Z,13.77
2022-08-24T02:54:44.117Z,13.79
2022-08-24T02:55:04.214Z,13.77
2022-08-24T02:55:24.256Z,13.76
2022-08-24T02:55:44.327Z,13.76
2022-08-24T02:56:04.386Z,13.76
2022-08-24T02:56:24.445Z,13.76
2022-08-24T02:56:44.481Z,13.73
2022-08-24T02:57:04.556Z,13.75
2022-08-24T02:57:24.593Z,13.75
2022-08-24T02:57:44.684Z,13.76
2022-08-24T02:58:04.739Z,13.72
2022-08-24T02:58:24.794Z,13.72
2022-08-24T02:58:44.876Z,13.72
2022-08-24T02:59:04.918Z,13.68
2022-08-24T02:59:24.974Z,13.72
2022-08-24T02:59:45.043Z,13.69
2022-08-24T03:00:09.932Z,13.68
2022-08-24T03:00:25.169Z,13.69
2022-08-24T03:00:45.246Z,13.68
2022-08-24T03:01:05.383Z,13.66
2022-08-24T03:01:30.530Z,13.68
2022-08-24T03:01:45.514Z,13.68
2022-08-24T03:02:05.553Z,13.65
2022-08-24T03:02:25.601Z,13.66
2022-08-24T03:02:45.688Z,13.63
2022-08-24T03:03:05.912Z,13.63
2022-08-24T03:03:25.723Z,13.63
2022-08-24T03:03:45.780Z,13.63
2022-08-24T03:04:05.857Z,13.63
2022-08-24T03:04:25.901Z,13.62
2022-08-24T03:04:45.936Z,13.62
2022-08-24T03:05:05.997Z,13.63
2022-08-24T03:05:26.080Z,13.61
2022-08-24T03:05:46.227Z,13.61
2022-08-24T03:06:06.189Z,13.61
2022-08-24T03:06:26.273Z,13.59
2022-08-24T03:06:46.348Z,13.58
2022-08-24T03:07:06.404Z,13.59
2022-08-24T03:07:26.466Z,13.59
2022-08-24T03:07:46.521Z,13.59
2022-08-24T03:08:06.573Z,13.58
2022-08-24T03:08:26.635Z,13.59
2022-08-24T03:08:51.278Z,13.56
2022-08-24T03:09:06.744Z,13.56
2022-08-24T03:09:28.974Z,13.56
2022-08-24T03:09:46.872Z,13.59
2022-08-24T03:10:06.943Z,13.56
2022-08-24T03:10:27.005Z,13.56
2022-08-24T03:10:47.060Z,13.59
2022-08-24T03:11:07.101Z,13.56
2022-08-24T03:11:28.416Z,13.55
2022-08-24T03:11:47.236Z,13.55
2022-08-24T03:12:07.294Z,13.54
2022-08-24T03:12:27.359Z,13.54
2022-08-24T03:12:47.405Z,13.51
2022-08-24T03:13:07.476Z,13.52
2022-08-24T03:13:27.546Z,13.52
2022-08-24T03:13:47.596Z,13.54
2022-08-24T03:14:07.649Z,13.54
2022-08-24T03:14:27.703Z,13.52
2022-08-24T03:14:47.764Z,13.51
2022-08-24T03:15:07.821Z,13.52
2022-08-24T03:15:27.946Z,13.54
2022-08-24T03:15:47.987Z,13.54
2022-08-24T03:16:08.053Z,13.52
2022-08-24T03:16:28.055Z,13.55
2022-08-24T03:16:48.122Z,13.52
2022-08-24T03:17:08.166Z,13.51
2022-08-24T03:17:28.246Z,13.54
2022-08-24T03:17:48.279Z,13.52
2022-08-24T03:18:08.362Z,13.52
2022-08-24T03:18:28.420Z,13.51
2022-08-24T03:18:48.489Z,13.52
2022-08-24T03:19:08.554Z,13.52
2022-08-24T03:19:28.606Z,13.49
2022-08-24T03:19:48.648Z,13.49
2022-08-24T03:20:08.710Z,13.48
2022-08-24T03:20:28.753Z,13.49
2022-08-24T03:20:48.806Z,13.46
2022-08-24T03:21:08.840Z,13.48
2022-08-24T03:21:28.909Z,13.46
2022-08-24T03:21:48.956Z,13.45
2022-08-24T03:22:09.001Z,13.46
2022-08-24T03:22:29.074Z,13.45
2022-08-24T03:22:49.106Z,13.45
2022-08-24T03:23:09.172Z,13.45
2022-08-24T03:23:29.305Z,13.44
2022-08-24T03:23:49.335Z,13.45
2022-08-24T03:24:09.383Z,13.44
2022-08-24T03:24:29.448Z,13.44
2022-08-24T03:24:49.503Z,13.41
2022-08-24T03:25:09.593Z,13.45
2022-08-24T03:25:29.659Z,13.44
2022-08-24T03:25:49.684Z,13.42
2022-08-24T03:26:09.756Z,13.38
2022-08-24T03:26:29.788Z,13.42
2022-08-24T03:26:49.849Z,13.39
2022-08-24T03:27:09.865Z,13.39
2022-08-24T03:27:29.910Z,13.42
2022-08-24T03:27:50.306Z,13.41
2022-08-24T03:28:11.200Z,13.42
2022-08-24T03:28:30.101Z,13.42
2022-08-24T03:28:50.162Z,13.41
2022-08-24T03:29:10.259Z,13.41
2022-08-24T03:29:33.647Z,13.39
2022-08-24T03:29:50.402Z,13.39
2022-08-24T03:30:10.468Z,13.42
2022-08-24T03:30:30.553Z,13.39
2022-08-24T03:30:50.641Z,13.41
2022-08-24T03:31:10.713Z,13.41
2022-08-24T03:31:30.718Z,13.41
2022-08-24T03:31:50.779Z,13.39
2022-08-24T03:32:10.830Z,13.37
2022-08-24T03:32:30.906Z,13.38
2022-08-24T03:32:50.940Z,13.41
2022-08-24T03:33:12.101Z,13.38
2022-08-24T03:33:31.030Z,13.39
2022-08-24T03:33:51.092Z,13.37
2022-08-24T03:34:11.163Z,13.35
2022-08-24T03:34:31.213Z,13.38
2022-08-24T03:34:51.266Z,13.35
2022-08-24T03:35:11.326Z,13.37
2022-08-24T03:35:31.375Z,13.34
2022-08-24T03:35:51.430Z,13.34
2022-08-24T03:36:14.345Z,13.37
2022-08-24T03:36:31.572Z,13.35
2022-08-24T03:36:51.665Z,13.38
2022-08-24T03:37:11.687Z,13.37
2022-08-24T03:37:31.772Z,13.35
2022-08-24T03:37:51.864Z,13.38
2022-08-24T03:38:11.929Z,13.37
2022-08-24T03:38:31.976Z,13.34
2022-08-24T03:38:52.057Z,13.34
2022-08-24T03:39:12.125Z,13.37
2022-08-24T03:39:32.161Z,13.37
2022-08-24T03:39:52.244Z,13.37
2022-08-24T03:40:22.915Z,13.35
2022-08-24T03:40:32.480Z,13.37
2022-08-24T03:40:52.430Z,13.35
2022-08-24T03:41:12.486Z,13.37
2022-08-24T03:41:35.052Z,13.37
2022-08-24T03:41:52.610Z,13.34
2022-08-24T03:42:12.693Z,13.37
2022-08-24T03:42:32.705Z,13.37
2022-08-24T03:42:52.790Z,13.35
2022-08-24T03:43:12.857Z,13.35
2022-08-24T03:43:32.923Z,13.35
2022-08-24T03:43:52.975Z,13.37
2022-08-24T03:44:13.022Z,13.38
2022-08-24T03:44:33.078Z,13.35
2022-08-24T03:44:53.152Z,13.35
2022-08-24T03:45:13.202Z,13.35
2022-08-24T03:45:33.347Z,13.34
2022-08-24T03:45:53.346Z,13.34
2022-08-24T03:46:13.441Z,13.35
2022-08-24T03:46:33.404Z,13.35
2022-08-24T03:46:53.532Z,13.35
2022-08-24T03:47:13.567Z,13.37
2022-08-24T03:47:33.619Z,13.35
2022-08-24T03:47:53.638Z,13.34
2022-08-24T03:48:13.705Z,13.34
2022-08-24T03:48:33.749Z,13.35
2022-08-24T03:48:53.778Z,13.33
2022-08-24T03:49:13.836Z,13.31
2022-08-24T03:49:33.957Z,13.33
2022-08-24T03:49:53.993Z,13.31
2022-08-24T03:50:14.074Z,13.29
2022-08-24T03:50:34.148Z,13.31
2022-08-24T03:50:54.211Z,13.31
2022-08-24T03:51:14.308Z,13.29
2022-08-24T03:51:34.373Z,13.31
2022-08-24T03:51:54.406Z,13.31
2022-08-24T03:52:14.463Z,13.31
2022-08-24T03:52:34.517Z,13.31
2022-08-24T03:52:54.558Z,13.33
2022-08-24T03:53:14.638Z,13.31
2022-08-24T03:53:34.672Z,13.31
2022-08-24T03:53:54.744Z,13.31
2022-08-24T03:54:14.819Z,13.29
2022-08-24T03:54:34.880Z,13.28
2022-08-24T03:54:54.954Z,13.29
2022-08-24T03:55:15.008Z,13.29
2022-08-24T03:55:35.133Z,13.28
2022-08-24T03:55:55.147Z,13.29
2022-08-24T03:56:15.211Z,13.27
2022-08-24T03:56:35.251Z,13.27
2022-08-24T03:56:55.295Z,13.28
2022-08-24T03:57:15.377Z,13.28
2022-08-24T03:57:35.448Z,13.25
2022-08-24T03:57:55.525Z,13.25
2022-08-24T03:58:15.572Z,13.22
2022-08-24T03:58:35.635Z,13.22
2022-08-24T03:58:55.705Z,13.22
2022-08-24T03:59:19.840Z,13.24
2022-08-24T03:59:39.335Z,13.19
2022-08-24T03:59:55.866Z,13.19
2022-08-24T04:00:15.897Z,13.21
2022-08-24T04:00:35.961Z,13.21
2022-08-24T04:00:56.075Z,13.21
2022-08-24T04:01:16.129Z,13.19
2022-08-24T04:01:36.183Z,13.18
2022-08-24T04:01:56.290Z,13.19
2022-08-24T04:02:16.274Z,13.19
2022-08-24T04:02:36.322Z,13.21
2022-08-24T04:02:56.382Z,13.21
2022-08-24T04:03:16.423Z,13.19
2022-08-24T04:03:36.463Z,13.18
2022-08-24T04:03:56.515Z,13.19
2022-08-24T04:04:16.594Z,13.18
2022-08-24T04:04:36.645Z,13.17
2022-08-24T04:04:56.691Z,13.15
2022-08-24T04:05:16.766Z,13.15
2022-08-24T04:05:36.817Z,13.15
2022-08-24T04:05:56.900Z,13.13
2022-08-24T04:06:16.942Z,13.15
2022-08-24T04:06:37.007Z,13.11
2022-08-24T04:06:57.120Z,13.11
2022-08-24T04:07:17.176Z,13.1
2022-08-24T04:07:37.243Z,13.08
2022-08-24T04:07:57.286Z,13.07
2022-08-24T04:08:17.917Z,13.08
2022-08-24T04:08:37.416Z,13.07
2022-08-24T04:08:57.470Z,13.1
2022-08-24T04:09:17.525Z,13.1
2022-08-24T04:09:37.589Z,13.13
2022-08-24T04:09:57.641Z,13.1
2022-08-24T04:10:17.713Z,13.08
2022-08-24T04:10:37.762Z,13.13
2022-08-24T04:10:57.824Z,13.11
2022-08-24T04:11:17.877Z,13.13
2022-08-24T04:11:41.092Z,13.11
2022-08-24T04:11:58.005Z,13.1
2022-08-24T04:12:18.058Z,13.08
2022-08-24T04:12:38.128Z,13.11
2022-08-24T04:12:58.165Z,13.1
2022-08-24T04:13:18.231Z,13.1
2022-08-24T04:13:38.251Z,13.08
2022-08-24T04:13:58.323Z,13.08
2022-08-24T04:14:26.442Z,13.07
2022-08-24T04:14:38.431Z,13.07
2022-08-24T04:14:58.465Z,13.06
2022-08-24T04:15:18.544Z,13.06
2022-08-24T04:15:38.622Z,13.04
2022-08-24T04:15:58.732Z,13.04
2022-08-24T04:16:18.796Z,13.04
2022-08-24T04:16:38.882Z,13.01
2022-08-24T04:16:58.908Z,12.98
2022-08-24T04:17:18.919Z,13.03
2022-08-24T04:17:38.994Z,13.01
2022-08-24T04:17:59.080Z,13
2022-08-24T04:18:19.158Z,12.98
2022-08-24T04:18:39.206Z,12.98
2022-08-24T04:18:59.289Z,12.98
2022-08-24T04:19:19.337Z,12.98